sensor_id;sensor_type;location;lat;lon;timestamp;pressure;altitude;pressure_sealevel;temperature;humidity
43683;BME280;29285;52.128;21.060;2023-05-07T00:03:50;100961.48;;;7.65;100.00
43683;BME280;29285;52.128;21.060;2023-05-07T00:08:51;100966.36;;;7.66;100.00
43683;BME280;29285;52.128;21.060;2023-05-07T00:13:52;100970.66;;;7.64;100.00
43683;BME280;29285;52.128;21.060;2023-05-07T00:18:53;100972.88;;;7.60;100.00
43683;BME280;29285;52.128;21.060;2023-05-07T00:23:54;100970.93;;;7.53;100.00
43683;BME280;29285;52.128;21.060;2023-05-07T00:28:55;100969.71;;;7.51;100.00
43683;BME280;29285;52.128;21.060;2023-05-07T00:33:56;100968.33;;;7.51;100.00
43683;BME280;29285;52.128;21.060;2023-05-07T00:38:59;100971.63;;;7.56;100.00
43683;BME280;29285;52.128;21.060;2023-05-07T00:44:01;100973.65;;;7.48;100.00
43683;BME280;29285;52.128;21.060;2023-05-07T00:49:03;100979.65;;;7.39;100.00
43683;BME280;29285;52.128;21.060;2023-05-07T00:54:04;100982.02;;;7.34;100.00
43683;BME280;29285;52.128;21.060;2023-05-07T00:59:05;100982.23;;;7.39;100.00
43683;BME280;29285;52.128;21.060;2023-05-07T01:04:07;100985.52;;;7.41;100.00
43683;BME280;29285;52.128;21.060;2023-05-07T01:09:08;100979.31;;;7.41;100.00
43683;BME280;29285;52.128;21.060;2023-05-07T01:14:10;100980.00;;;7.43;100.00
43683;BME280;29285;52.128;21.060;2023-05-07T01:19:11;100984.66;;;7.44;100.00
43683;BME280;29285;52.128;21.060;2023-05-07T01:24:15;100992.27;;;7.43;100.00
43683;BME280;29285;52.128;21.060;2023-05-07T01:29:17;100997.37;;;7.33;100.00
43683;BME280;29285;52.128;21.060;2023-05-07T01:34:19;101002.19;;;7.32;100.00
43683;BME280;29285;52.128;21.060;2023-05-07T01:39:24;101003.12;;;7.39;100.00
43683;BME280;29285;52.128;21.060;2023-05-07T01:44:26;100995.34;;;7.37;100.00
43683;BME280;29285;52.128;21.060;2023-05-07T01:49:27;101000.27;;;7.29;100.00
43683;BME280;29285;52.128;21.060;2023-05-07T01:54:29;100999.88;;;7.23;100.00
43683;BME280;29285;52.128;21.060;2023-05-07T01:59:30;101003.11;;;7.18;100.00
43683;BME280;29285;52.128;21.060;2023-05-07T02:20:58;100991.14;;;7.09;100.00
43683;BME280;29285;52.128;21.060;2023-05-07T02:25:59;100995.33;;;7.16;100.00
43683;BME280;29285;52.128;21.060;2023-05-07T02:31:00;100999.20;;;7.24;100.00
43683;BME280;29285;52.128;21.060;2023-05-07T02:36:11;101002.84;;;7.26;100.00
43683;BME280;29285;52.128;21.060;2023-05-07T02:41:12;101005.61;;;7.27;100.00
43683;BME280;29285;52.128;21.060;2023-05-07T02:46:13;101008.40;;;7.29;100.00
43683;BME280;29285;52.128;21.060;2023-05-07T02:51:14;101009.02;;;7.23;100.00
43683;BME280;29285;52.128;21.060;2023-05-07T02:56:15;101009.36;;;7.22;100.00
43683;BME280;29285;52.128;21.060;2023-05-07T03:01:16;101012.88;;;7.29;100.00
43683;BME280;29285;52.128;21.060;2023-05-07T03:06:17;101018.44;;;7.35;100.00
43683;BME280;29285;52.128;21.060;2023-05-07T03:11:18;101021.95;;;7.41;100.00
43683;BME280;29285;52.128;21.060;2023-05-07T03:16:19;101025.27;;;7.46;100.00
43683;BME280;29285;52.128;21.060;2023-05-07T03:21:20;101032.52;;;7.45;100.00
43683;BME280;29285;52.128;21.060;2023-05-07T03:26:21;101036.58;;;7.36;100.00
43683;BME280;29285;52.128;21.060;2023-05-07T03:31:22;101044.06;;;7.24;100.00
43683;BME280;29285;52.128;21.060;2023-05-07T03:36:23;101045.58;;;7.20;100.00
43683;BME280;29285;52.128;21.060;2023-05-07T03:41:24;101049.38;;;7.20;100.00
43683;BME280;29285;52.128;21.060;2023-05-07T03:46:26;101056.13;;;7.21;100.00
43683;BME280;29285;52.128;21.060;2023-05-07T03:51:28;101058.24;;;7.28;100.00
43683;BME280;29285;52.128;21.060;2023-05-07T03:56:29;101059.02;;;7.37;100.00
43683;BME280;29285;52.128;21.060;2023-05-07T04:01:31;101064.19;;;7.34;100.00
43683;BME280;29285;52.128;21.060;2023-05-07T04:06:33;101067.80;;;7.33;100.00
43683;BME280;29285;52.128;21.060;2023-05-07T04:11:35;101075.89;;;7.30;100.00
43683;BME280;29285;52.128;21.060;2023-05-07T04:16:36;101084.11;;;7.24;100.00
43683;BME280;29285;52.128;21.060;2023-05-07T04:21:37;101087.09;;;7.29;100.00
43683;BME280;29285;52.128;21.060;2023-05-07T04:26:38;101092.30;;;7.32;100.00
43683;BME280;29285;52.128;21.060;2023-05-07T04:31:39;101094.07;;;7.36;100.00
43683;BME280;29285;52.128;21.060;2023-05-07T04:36:41;101094.41;;;7.35;100.00
43683;BME280;29285;52.128;21.060;2023-05-07T04:41:43;101102.67;;;7.33;100.00
43683;BME280;29285;52.128;21.060;2023-05-07T04:46:43;101108.70;;;7.32;100.00
43683;BME280;29285;52.128;21.060;2023-05-07T04:51:44;101114.59;;;7.36;100.00
43683;BME280;29285;52.128;21.060;2023-05-07T04:56:45;101113.71;;;7.34;100.00
43683;BME280;29285;52.128;21.060;2023-05-07T05:01:46;101123.90;;;7.34;100.00
43683;BME280;29285;52.128;21.060;2023-05-07T05:06:47;101125.01;;;7.41;100.00
43683;BME280;29285;52.128;21.060;2023-05-07T05:11:48;101130.95;;;7.48;100.00
43683;BME280;29285;52.128;21.060;2023-05-07T05:16:49;101139.77;;;7.51;100.00
43683;BME280;29285;52.128;21.060;2023-05-07T05:21:50;101142.05;;;7.51;100.00
43683;BME280;29285;52.128;21.060;2023-05-07T05:26:53;101150.13;;;7.49;100.00
43683;BME280;29285;52.128;21.060;2023-05-07T05:31:54;101153.77;;;7.49;100.00
43683;BME280;29285;52.128;21.060;2023-05-07T05:36:56;101151.23;;;7.56;100.00
43683;BME280;29285;52.128;21.060;2023-05-07T05:41:57;101156.58;;;7.56;100.00
43683;BME280;29285;52.128;21.060;2023-05-07T05:46:58;101157.93;;;7.52;100.00
43683;BME280;29285;52.128;21.060;2023-05-07T05:52:00;101161.91;;;7.53;100.00
43683;BME280;29285;52.128;21.060;2023-05-07T05:57:01;101167.11;;;7.55;100.00
43683;BME280;29285;52.128;21.060;2023-05-07T06:02:04;101172.00;;;7.61;100.00
43683;BME280;29285;52.128;21.060;2023-05-07T06:07:06;101175.88;;;7.70;100.00
43683;BME280;29285;52.128;21.060;2023-05-07T06:12:07;101170.29;;;7.81;100.00
43683;BME280;29285;52.128;21.060;2023-05-07T06:17:08;101175.94;;;7.97;100.00
43683;BME280;29285;52.128;21.060;2023-05-07T06:22:09;101180.23;;;8.15;100.00
43683;BME280;29285;52.128;21.060;2023-05-07T06:27:10;101181.20;;;8.29;100.00
43683;BME280;29285;52.128;21.060;2023-05-07T06:32:13;101184.42;;;8.46;100.00
43683;BME280;29285;52.128;21.060;2023-05-07T06:37:14;101180.23;;;8.63;100.00
43683;BME280;29285;52.128;21.060;2023-05-07T06:42:15;101172.98;;;8.66;100.00
43683;BME280;29285;52.128;21.060;2023-05-07T06:47:16;101166.27;;;8.73;100.00
43683;BME280;29285;52.128;21.060;2023-05-07T06:52:17;101176.38;;;8.88;100.00
43683;BME280;29285;52.128;21.060;2023-05-07T06:57:18;101186.14;;;9.03;100.00
43683;BME280;29285;52.128;21.060;2023-05-07T07:02:18;101181.65;;;9.09;100.00
43683;BME280;29285;52.128;21.060;2023-05-07T07:07:20;101192.21;;;9.10;100.00
43683;BME280;29285;52.128;21.060;2023-05-07T07:12:20;101199.48;;;9.10;100.00
43683;BME280;29285;52.128;21.060;2023-05-07T07:17:23;101203.48;;;9.16;100.00
43683;BME280;29285;52.128;21.060;2023-05-07T07:22:24;101211.59;;;9.08;100.00
43683;BME280;29285;52.128;21.060;2023-05-07T07:27:25;101210.36;;;9.03;100.00
43683;BME280;29285;52.128;21.060;2023-05-07T07:32:26;101216.11;;;9.10;100.00
43683;BME280;29285;52.128;21.060;2023-05-07T07:37:27;101219.27;;;9.22;100.00
43683;BME280;29285;52.128;21.060;2023-05-07T07:42:28;101228.45;;;9.28;100.00
43683;BME280;29285;52.128;21.060;2023-05-07T07:47:29;101233.82;;;9.27;100.00
43683;BME280;29285;52.128;21.060;2023-05-07T07:52:31;101231.38;;;9.18;100.00
43683;BME280;29285;52.128;21.060;2023-05-07T07:57:32;101232.90;;;9.12;100.00
43683;BME280;29285;52.128;21.060;2023-05-07T08:02:33;101231.02;;;9.17;100.00
43683;BME280;29285;52.128;21.060;2023-05-07T08:07:34;101233.11;;;9.20;100.00
43683;BME280;29285;52.128;21.060;2023-05-07T08:12:35;101236.55;;;9.17;100.00
43683;BME280;29285;52.128;21.060;2023-05-07T08:17:36;101238.84;;;9.25;100.00
43683;BME280;29285;52.128;21.060;2023-05-07T08:22:37;101244.77;;;9.38;100.00
43683;BME280;29285;52.128;21.060;2023-05-07T08:27:38;101247.24;;;9.50;100.00
43683;BME280;29285;52.128;21.060;2023-05-07T08:32:39;101243.42;;;9.50;100.00
43683;BME280;29285;52.128;21.060;2023-05-07T08:37:40;101251.04;;;9.45;100.00
43683;BME280;29285;52.128;21.060;2023-05-07T08:42:41;101255.70;;;9.42;100.00
43683;BME280;29285;52.128;21.060;2023-05-07T08:47:44;101260.02;;;9.39;100.00
43683;BME280;29285;52.128;21.060;2023-05-07T08:52:47;101264.00;;;9.38;100.00
43683;BME280;29285;52.128;21.060;2023-05-07T08:57:48;101273.32;;;9.30;100.00
43683;BME280;29285;52.128;21.060;2023-05-07T09:02:49;101285.76;;;9.23;100.00
43683;BME280;29285;52.128;21.060;2023-05-07T09:07:50;101287.30;;;9.21;100.00
43683;BME280;29285;52.128;21.060;2023-05-07T09:12:52;101292.16;;;9.23;100.00
43683;BME280;29285;52.128;21.060;2023-05-07T09:17:53;101292.70;;;9.31;100.00
43683;BME280;29285;52.128;21.060;2023-05-07T09:22:55;101292.79;;;9.49;100.00
43683;BME280;29285;52.128;21.060;2023-05-07T09:27:57;101296.30;;;9.63;100.00
43683;BME280;29285;52.128;21.060;2023-05-07T09:32:58;101301.55;;;9.80;100.00
43683;BME280;29285;52.128;21.060;2023-05-07T09:38:00;101305.22;;;9.90;100.00
43683;BME280;29285;52.128;21.060;2023-05-07T09:43:13;101313.02;;;9.86;100.00
43683;BME280;29285;52.128;21.060;2023-05-07T09:48:15;101312.11;;;9.78;100.00
43683;BME280;29285;52.128;21.060;2023-05-07T09:53:18;101310.92;;;9.83;100.00
43683;BME280;29285;52.128;21.060;2023-05-07T09:58:20;101318.38;;;9.85;100.00
43683;BME280;29285;52.128;21.060;2023-05-07T10:03:22;101323.59;;;9.88;100.00
43683;BME280;29285;52.128;21.060;2023-05-07T10:08:25;101333.82;;;9.91;100.00
43683;BME280;29285;52.128;21.060;2023-05-07T10:13:26;101330.02;;;9.95;100.00
43683;BME280;29285;52.128;21.060;2023-05-07T10:18:27;101336.79;;;10.04;100.00
43683;BME280;29285;52.128;21.060;2023-05-07T10:23:31;101339.92;;;10.02;100.00
43683;BME280;29285;52.128;21.060;2023-05-07T10:28:37;101343.73;;;9.99;100.00
43683;BME280;29285;52.128;21.060;2023-05-07T10:33:39;101343.37;;;9.98;100.00
43683;BME280;29285;52.128;21.060;2023-05-07T10:38:41;101349.44;;;9.96;100.00
43683;BME280;29285;52.128;21.060;2023-05-07T10:43:44;101348.74;;;9.96;100.00
43683;BME280;29285;52.128;21.060;2023-05-07T11:04:31;101357.94;;;10.01;100.00
43683;BME280;29285;52.128;21.060;2023-05-07T11:09:54;101365.40;;;10.01;100.00
43683;BME280;29285;52.128;21.060;2023-05-07T11:14:57;101367.84;;;10.06;100.00
43683;BME280;29285;52.128;21.060;2023-05-07T11:19:58;101366.64;;;10.12;100.00
43683;BME280;29285;52.128;21.060;2023-05-07T11:25:00;101365.60;;;10.18;100.00
43683;BME280;29285;52.128;21.060;2023-05-07T11:30:01;101372.05;;;10.28;100.00
43683;BME280;29285;52.128;21.060;2023-05-07T11:35:02;101376.74;;;10.36;100.00
43683;BME280;29285;52.128;21.060;2023-05-07T11:40:04;101375.20;;;10.41;100.00
43683;BME280;29285;52.128;21.060;2023-05-07T11:45:07;101376.45;;;10.61;100.00
43683;BME280;29285;52.128;21.060;2023-05-07T11:50:09;101374.37;;;10.70;100.00
43683;BME280;29285;52.128;21.060;2023-05-07T11:55:11;101376.27;;;10.92;100.00
43683;BME280;29285;52.128;21.060;2023-05-07T12:00:15;101382.18;;;10.90;100.00
43683;BME280;29285;52.128;21.060;2023-05-07T12:05:17;101383.74;;;10.80;100.00
43683;BME280;29285;52.128;21.060;2023-05-07T12:10:18;101383.91;;;10.96;100.00
43683;BME280;29285;52.128;21.060;2023-05-07T12:15:22;101377.20;;;11.46;100.00
43683;BME280;29285;52.128;21.060;2023-05-07T12:20:23;101379.42;;;11.60;100.00
43683;BME280;29285;52.128;21.060;2023-05-07T12:25:25;101385.21;;;11.41;100.00
43683;BME280;29285;52.128;21.060;2023-05-07T12:30:26;101395.85;;;11.23;100.00
43683;BME280;29285;52.128;21.060;2023-05-07T12:35:28;101393.58;;;11.30;100.00
43683;BME280;29285;52.128;21.060;2023-05-07T12:40:40;101391.63;;;11.47;100.00
43683;BME280;29285;52.128;21.060;2023-05-07T12:45:42;101392.10;;;11.62;100.00
43683;BME280;29285;52.128;21.060;2023-05-07T12:50:43;101395.73;;;12.11;100.00
43683;BME280;29285;52.128;21.060;2023-05-07T12:55:46;101397.39;;;12.26;100.00
43683;BME280;29285;52.128;21.060;2023-05-07T13:00:48;101403.43;;;12.36;100.00
43683;BME280;29285;52.128;21.060;2023-05-07T13:05:51;101404.54;;;12.25;100.00
43683;BME280;29285;52.128;21.060;2023-05-07T13:10:52;101401.64;;;12.14;100.00
43683;BME280;29285;52.128;21.060;2023-05-07T13:15:54;101393.88;;;12.57;100.00
43683;BME280;29285;52.128;21.060;2023-05-07T13:20:55;101398.58;;;12.58;100.00
43683;BME280;29285;52.128;21.060;2023-05-07T13:25:56;101401.88;;;12.32;100.00
43683;BME280;29285;52.128;21.060;2023-05-07T13:30:57;101391.92;;;12.09;100.00
43683;BME280;29285;52.128;21.060;2023-05-07T13:35:59;101392.64;;;12.00;100.00
43683;BME280;29285;52.128;21.060;2023-05-07T13:41:01;101396.60;;;12.12;100.00
43683;BME280;29285;52.128;21.060;2023-05-07T13:46:03;101397.48;;;12.38;100.00
43683;BME280;29285;52.128;21.060;2023-05-07T13:51:04;101393.70;;;12.57;100.00
43683;BME280;29285;52.128;21.060;2023-05-07T13:56:05;101392.27;;;13.05;100.00
43683;BME280;29285;52.128;21.060;2023-05-07T14:01:06;101384.04;;;13.73;100.00
43683;BME280;29285;52.128;21.060;2023-05-07T14:06:07;101382.19;;;14.21;100.00
43683;BME280;29285;52.128;21.060;2023-05-07T14:11:08;101382.48;;;14.14;100.00
43683;BME280;29285;52.128;21.060;2023-05-07T14:16:09;101388.48;;;13.81;100.00
43683;BME280;29285;52.128;21.060;2023-05-07T14:21:10;101394.65;;;13.76;100.00
43683;BME280;29285;52.128;21.060;2023-05-07T14:26:11;101401.48;;;13.74;99.86
43683;BME280;29285;52.128;21.060;2023-05-07T14:31:12;101400.57;;;13.63;99.27
43683;BME280;29285;52.128;21.060;2023-05-07T14:36:13;101404.23;;;13.77;98.86
43683;BME280;29285;52.128;21.060;2023-05-07T14:41:16;101400.89;;;14.06;98.81
43683;BME280;29285;52.128;21.060;2023-05-07T14:46:19;101396.90;;;14.42;98.96
43683;BME280;29285;52.128;21.060;2023-05-07T14:51:20;101401.28;;;14.75;98.63
43683;BME280;29285;52.128;21.060;2023-05-07T14:56:22;101405.68;;;14.73;97.72
43683;BME280;29285;52.128;21.060;2023-05-07T15:01:23;101401.60;;;14.31;95.67
43683;BME280;29285;52.128;21.060;2023-05-07T15:06:24;101401.55;;;14.46;95.03
43683;BME280;29285;52.128;21.060;2023-05-07T15:11:25;101402.45;;;15.10;95.78
43683;BME280;29285;52.128;21.060;2023-05-07T15:16:26;101404.16;;;15.68;95.93
43683;BME280;29285;52.128;21.060;2023-05-07T15:21:27;101402.23;;;16.41;96.36
43683;BME280;29285;52.128;21.060;2023-05-07T15:26:28;101406.20;;;16.59;94.76
43683;BME280;29285;52.128;21.060;2023-05-07T15:31:29;101407.09;;;16.95;93.70
43683;BME280;29285;52.128;21.060;2023-05-07T15:36:30;101404.17;;;17.34;93.04
43683;BME280;29285;52.128;21.060;2023-05-07T15:41:31;101410.13;;;17.46;91.82
43683;BME280;29285;52.128;21.060;2023-05-07T15:46:32;101415.91;;;17.14;89.58
43683;BME280;29285;52.128;21.060;2023-05-07T15:51:34;101413.90;;;17.36;88.87
43683;BME280;29285;52.128;21.060;2023-05-07T15:56:36;101407.06;;;17.92;89.04
43683;BME280;29285;52.128;21.060;2023-05-07T16:01:37;101402.89;;;18.32;88.10
43683;BME280;29285;52.128;21.060;2023-05-07T16:06:38;101407.51;;;18.85;87.20
43683;BME280;29285;52.128;21.060;2023-05-07T16:11:39;101407.05;;;19.20;85.56
43683;BME280;29285;52.128;21.060;2023-05-07T16:16:40;101404.44;;;19.44;83.70
43683;BME280;29285;52.128;21.060;2023-05-07T16:21:41;101400.47;;;19.67;82.16
43683;BME280;29285;52.128;21.060;2023-05-07T16:26:42;101398.02;;;19.89;80.66
43683;BME280;29285;52.128;21.060;2023-05-07T16:31:43;101400.84;;;19.94;78.84
43683;BME280;29285;52.128;21.060;2023-05-07T16:36:45;101402.56;;;19.86;76.93
43683;BME280;29285;52.128;21.060;2023-05-07T16:41:46;101407.05;;;19.79;75.42
43683;BME280;29285;52.128;21.060;2023-05-07T16:46:48;101412.81;;;19.80;74.22
43683;BME280;29285;52.128;21.060;2023-05-07T16:51:49;101411.53;;;19.81;73.07
43683;BME280;29285;52.128;21.060;2023-05-07T16:56:50;101414.72;;;19.85;72.04
43683;BME280;29285;52.128;21.060;2023-05-07T17:01:51;101415.13;;;19.79;70.82
43683;BME280;29285;52.128;21.060;2023-05-07T17:06:53;101418.38;;;19.68;69.66
43683;BME280;29285;52.128;21.060;2023-05-07T17:11:54;101421.64;;;19.55;68.60
43683;BME280;29285;52.128;21.060;2023-05-07T17:16:56;101422.34;;;19.36;67.66
43683;BME280;29285;52.128;21.060;2023-05-07T17:21:57;101420.11;;;19.08;66.61
43683;BME280;29285;52.128;21.060;2023-05-07T17:26:58;101420.02;;;18.79;65.69
43683;BME280;29285;52.128;21.060;2023-05-07T17:31:59;101429.15;;;18.41;64.94
43683;BME280;29285;52.128;21.060;2023-05-07T17:37:00;101436.95;;;17.72;63.86
43683;BME280;29285;52.128;21.060;2023-05-07T17:42:01;101450.98;;;16.91;62.90
43683;BME280;29285;52.128;21.060;2023-05-07T17:47:02;101452.41;;;16.22;62.46
43683;BME280;29285;52.128;21.060;2023-05-07T17:52:04;101458.93;;;15.57;62.01
43683;BME280;29285;52.128;21.060;2023-05-07T17:57:05;101463.02;;;15.04;61.91
43683;BME280;29285;52.128;21.060;2023-05-07T18:02:06;101463.73;;;14.56;61.95
43683;BME280;29285;52.128;21.060;2023-05-07T18:07:07;101468.79;;;14.18;62.24
43683;BME280;29285;52.128;21.060;2023-05-07T18:12:08;101479.50;;;13.84;62.40
43683;BME280;29285;52.128;21.060;2023-05-07T18:17:09;101489.61;;;13.50;62.61
43683;BME280;29285;52.128;21.060;2023-05-07T18:22:10;101496.48;;;13.20;62.76
43683;BME280;29285;52.128;21.060;2023-05-07T18:27:12;101504.04;;;12.89;63.14
43683;BME280;29285;52.128;21.060;2023-05-07T18:32:13;101504.91;;;12.62;63.46
43683;BME280;29285;52.128;21.060;2023-05-07T18:37:14;101514.80;;;12.34;63.81
43683;BME280;29285;52.128;21.060;2023-05-07T18:42:15;101518.02;;;12.13;64.17
43683;BME280;29285;52.128;21.060;2023-05-07T18:47:16;101522.22;;;11.96;64.77
43683;BME280;29285;52.128;21.060;2023-05-07T18:52:18;101525.74;;;11.74;65.07
43683;BME280;29285;52.128;21.060;2023-05-07T18:57:21;101529.25;;;11.57;65.60
43683;BME280;29285;52.128;21.060;2023-05-07T19:02:22;101534.64;;;11.40;65.95
43683;BME280;29285;52.128;21.060;2023-05-07T19:07:24;101541.25;;;11.24;66.27
43683;BME280;29285;52.128;21.060;2023-05-07T19:12:25;101545.58;;;11.08;66.77
43683;BME280;29285;52.128;21.060;2023-05-07T19:17:27;101548.15;;;10.96;67.28
43683;BME280;29285;52.128;21.060;2023-05-07T19:22:28;101553.86;;;10.81;67.61
43683;BME280;29285;52.128;21.060;2023-05-07T19:27:29;101557.65;;;10.69;68.31
43683;BME280;29285;52.128;21.060;2023-05-07T19:32:30;101566.30;;;10.60;68.85
43683;BME280;29285;52.128;21.060;2023-05-07T19:37:31;101573.89;;;10.51;69.40
43683;BME280;29285;52.128;21.060;2023-05-07T19:42:32;101579.38;;;10.41;70.01
43683;BME280;29285;52.128;21.060;2023-05-07T19:47:34;101585.70;;;10.24;70.16
43683;BME280;29285;52.128;21.060;2023-05-07T19:52:35;101593.11;;;10.14;70.77
43683;BME280;29285;52.128;21.060;2023-05-07T19:57:36;101593.05;;;10.03;71.16
43683;BME280;29285;52.128;21.060;2023-05-07T20:02:38;101596.27;;;9.93;71.44
43683;BME280;29285;52.128;21.060;2023-05-07T20:07:39;101598.30;;;9.83;72.19
43683;BME280;29285;52.128;21.060;2023-05-07T20:12:40;101602.19;;;9.72;72.57
43683;BME280;29285;52.128;21.060;2023-05-07T20:17:41;101603.67;;;9.62;72.91
43683;BME280;29285;52.128;21.060;2023-05-07T20:22:42;101606.38;;;9.54;73.54
43683;BME280;29285;52.128;21.060;2023-05-07T20:27:44;101605.97;;;9.46;74.01
43683;BME280;29285;52.128;21.060;2023-05-07T20:32:45;101608.48;;;9.37;74.49
43683;BME280;29285;52.128;21.060;2023-05-07T20:37:46;101618.60;;;9.26;74.82
43683;BME280;29285;52.128;21.060;2023-05-07T20:42:47;101622.33;;;9.19;75.29
43683;BME280;29285;52.128;21.060;2023-05-07T20:47:48;101622.62;;;9.12;75.84
43683;BME280;29285;52.128;21.060;2023-05-07T20:52:49;101624.78;;;9.04;76.26
43683;BME280;29285;52.128;21.060;2023-05-07T20:57:50;101633.34;;;8.96;76.65
43683;BME280;29285;52.128;21.060;2023-05-07T21:02:51;101635.71;;;8.92;77.21
43683;BME280;29285;52.128;21.060;2023-05-07T21:07:52;101639.81;;;8.87;77.70
43683;BME280;29285;52.128;21.060;2023-05-07T21:12:53;101648.16;;;8.77;77.98
43683;BME280;29285;52.128;21.060;2023-05-07T21:17:55;101654.84;;;8.70;78.36
43683;BME280;29285;52.128;21.060;2023-05-07T21:22:55;101657.00;;;8.63;78.76
43683;BME280;29285;52.128;21.060;2023-05-07T21:27:57;101666.01;;;8.53;79.11
43683;BME280;29285;52.128;21.060;2023-05-07T21:32:58;101671.42;;;8.45;79.40
43683;BME280;29285;52.128;21.060;2023-05-07T21:37:59;101676.88;;;8.40;79.89
43683;BME280;29285;52.128;21.060;2023-05-07T21:43:02;101682.71;;;8.36;80.32
43683;BME280;29285;52.128;21.060;2023-05-07T21:48:03;101688.35;;;8.32;80.77
43683;BME280;29285;52.128;21.060;2023-05-07T21:53:04;101690.35;;;8.26;81.09
43683;BME280;29285;52.128;21.060;2023-05-07T21:58:05;101692.89;;;8.23;81.48
43683;BME280;29285;52.128;21.060;2023-05-07T22:03:09;101695.95;;;8.19;81.87
43683;BME280;29285;52.128;21.060;2023-05-07T22:08:10;101698.65;;;8.15;82.19
43683;BME280;29285;52.128;21.060;2023-05-07T22:13:11;101696.30;;;8.08;82.47
43683;BME280;29285;52.128;21.060;2023-05-07T22:18:12;101698.42;;;8.01;82.82
43683;BME280;29285;52.128;21.060;2023-05-07T22:23:14;101701.44;;;7.95;83.05
43683;BME280;29285;52.128;21.060;2023-05-07T22:28:15;101699.41;;;7.88;83.32
43683;BME280;29285;52.128;21.060;2023-05-07T22:33:16;101699.48;;;7.82;83.66
43683;BME280;29285;52.128;21.060;2023-05-07T22:38:17;101701.42;;;7.74;83.87
43683;BME280;29285;52.128;21.060;2023-05-07T22:43:18;101700.26;;;7.67;84.09
43683;BME280;29285;52.128;21.060;2023-05-07T22:48:19;101699.61;;;7.60;84.51
43683;BME280;29285;52.128;21.060;2023-05-07T22:53:21;101704.34;;;7.53;84.56
43683;BME280;29285;52.128;21.060;2023-05-07T22:58:22;101704.73;;;7.46;84.94
43683;BME280;29285;52.128;21.060;2023-05-07T23:03:24;101702.81;;;7.36;85.09
43683;BME280;29285;52.128;21.060;2023-05-07T23:08:25;101703.88;;;7.29;85.38
43683;BME280;29285;52.128;21.060;2023-05-07T23:13:27;101705.16;;;7.23;85.69
43683;BME280;29285;52.128;21.060;2023-05-07T23:18:28;101702.11;;;7.18;85.92
43683;BME280;29285;52.128;21.060;2023-05-07T23:23:33;101706.67;;;7.13;86.16
43683;BME280;29285;52.128;21.060;2023-05-07T23:28:34;101704.10;;;7.04;86.35
43683;BME280;29285;52.128;21.060;2023-05-07T23:33:36;101704.15;;;6.98;86.76
43683;BME280;29285;52.128;21.060;2023-05-07T23:38:37;101701.23;;;6.91;86.98
43683;BME280;29285;52.128;21.060;2023-05-07T23:43:38;101698.86;;;6.85;87.16
43683;BME280;29285;52.128;21.060;2023-05-07T23:48:40;101697.87;;;6.79;87.21
43683;BME280;29285;52.128;21.060;2023-05-07T23:53:41;101699.89;;;6.77;87.66
43683;BME280;29285;52.128;21.060;2023-05-07T23:58:42;101698.48;;;6.75;87.91
